Kalamazoo METAR

KAZO 231500Z 02012G19KT 7SM FEW017 BKN036 OVC110 M08/M12 A2988 RMK AO2 SNE1456 P0000 T10781122

Kalamazoo TAF

TAF KAZO 231156Z 2312/2412 04009KT 3/4SM -SN FEW008 OVC013 FM231300 36009KT 4SM -SN BR OVC019 FM231400 36007KT P6SM OVC025 FM240000 20002KT P6SM OVC250 FM241100 18008KT P6SM OVC025